createdAt,value
2023-03-21T00:01:54.594Z,-2.42
2023-03-21T00:04:23.576Z,-2.35
2023-03-21T00:06:50.734Z,-2.36
2023-03-21T00:09:17.579Z,-2.46
2023-03-21T00:11:45.833Z,-2.39
2023-03-21T00:14:16.542Z,-2.31
2023-03-21T00:16:47.085Z,-2.14
2023-03-21T00:19:14.726Z,-2.07
2023-03-21T00:22:06.060Z,-2.03
2023-03-21T00:24:29.679Z,-2.12
2023-03-21T00:27:05.991Z,-2.16
2023-03-21T00:29:44.220Z,-2.20
2023-03-21T00:32:10.827Z,-2.17
2023-03-21T00:34:54.423Z,-2.16
2023-03-21T00:37:21.598Z,-2.34
2023-03-21T00:39:49.415Z,-2.30
2023-03-21T00:42:16.650Z,-2.29
2023-03-21T00:44:45.942Z,-2.29
2023-03-21T00:47:13.912Z,-2.19
2023-03-21T00:49:40.569Z,-2.19
2023-03-21T00:52:17.070Z,-2.35
2023-03-21T00:54:48.977Z,-2.54
2023-03-21T00:57:18.746Z,-2.47
2023-03-21T00:59:45.428Z,-2.25
2023-03-21T01:02:15.161Z,-2.33
2023-03-21T01:04:41.852Z,-2.35
2023-03-21T01:07:08.687Z,-2.14
2023-03-21T01:09:35.381Z,-2.12
2023-03-21T01:12:04.854Z,-2.12
2023-03-21T01:14:32.793Z,-1.99
2023-03-21T01:17:00.803Z,-2.13
2023-03-21T01:19:44.295Z,-2.81
2023-03-21T01:22:15.074Z,-3.07
2023-03-21T01:24:52.416Z,-2.89
2023-03-21T01:27:21.961Z,-3.08
2023-03-21T01:29:48.689Z,-3.06
2023-03-21T01:32:15.596Z,-2.89
2023-03-21T01:34:42.197Z,-3.03
2023-03-21T01:37:08.838Z,-3.22
2023-03-21T01:39:35.895Z,-3.35
2023-03-21T01:42:02.589Z,-3.34
2023-03-21T01:44:29.240Z,-3.51
2023-03-21T01:47:10.966Z,-3.54
2023-03-21T01:49:46.393Z,-3.47
2023-03-21T01:52:33.549Z,-3.30
2023-03-21T01:55:13.312Z,-3.60
2023-03-21T01:58:09.537Z,-3.51
2023-03-21T02:00:37.255Z,-3.27
2023-03-21T02:03:15.233Z,-3.07
2023-03-21T02:06:00.575Z,-3.15
2023-03-21T02:08:38.801Z,-3.24
2023-03-21T02:11:10.128Z,-3.26
2023-03-21T02:13:38.920Z,-3.07
2023-03-21T02:16:21.793Z,-3.36
2023-03-21T02:19:29.586Z,-3.36
2023-03-21T02:22:37.921Z,-3.09
2023-03-21T02:25:22.098Z,-3.17
2023-03-21T02:28:03.046Z,-3.38
2023-03-21T02:30:55.605Z,-3.56
2023-03-21T02:34:01.866Z,-3.37
2023-03-21T02:36:48.166Z,-3.44
2023-03-21T02:39:56.814Z,-3.72
2023-03-21T02:42:54.822Z,-3.80
2023-03-21T02:45:31.944Z,-3.77
2023-03-21T02:48:10.089Z,-3.61
2023-03-21T02:50:46.449Z,-3.42
2023-03-21T02:53:15.926Z,-3.25
2023-03-21T02:55:43.981Z,-3.23
2023-03-21T02:58:16.641Z,-3.32
2023-03-21T03:00:44.151Z,-3.31
2023-03-21T03:03:24.995Z,-3.39
2023-03-21T03:05:58.730Z,-3.39
2023-03-21T03:08:53.032Z,-3.43
2023-03-21T03:11:31.245Z,-3.44
2023-03-21T03:14:40.022Z,-3.20
2023-03-21T03:17:18.315Z,-3.07
2023-03-21T03:20:15.429Z,-2.98
2023-03-21T03:22:56.580Z,-3.11
2023-03-21T03:25:43.179Z,-3.36
2023-03-21T03:28:13.296Z,-3.37
2023-03-21T03:30:48.886Z,-3.39
2023-03-21T03:33:26.681Z,-3.66
2023-03-21T03:36:05.000Z,-3.76
2023-03-21T03:38:35.635Z,-3.57
2023-03-21T03:41:16.013Z,-3.47
2023-03-21T03:43:51.091Z,-3.59
2023-03-21T03:46:34.466Z,-3.67
2023-03-21T03:49:22.948Z,-3.65
2023-03-21T03:52:03.944Z,-3.63
2023-03-21T03:54:36.526Z,-3.55
2023-03-21T03:57:06.031Z,-3.50
2023-03-21T03:59:44.512Z,-3.86
2023-03-21T04:02:11.249Z,-4.23
2023-03-21T04:04:39.693Z,-4.30
2023-03-21T04:07:06.473Z,-4.03
2023-03-21T04:09:44.261Z,-3.91
2023-03-21T04:12:13.140Z,-4.50
2023-03-21T04:14:45.728Z,-4.91
2023-03-21T04:17:13.910Z,-4.48
2023-03-21T04:19:40.612Z,-4.40
2023-03-21T04:22:07.359Z,-4.22
2023-03-21T04:24:34.171Z,-4.40
2023-03-21T04:27:01.998Z,-4.33
2023-03-21T04:29:29.804Z,-4.58
2023-03-21T04:31:57.046Z,-4.55
2023-03-21T04:34:28.302Z,-4.61
2023-03-21T04:36:57.306Z,-4.64
2023-03-21T04:39:26.158Z,-4.69
2023-03-21T04:41:52.917Z,-4.71
2023-03-21T04:44:20.930Z,-4.77
2023-03-21T04:46:51.480Z,-4.68
2023-03-21T04:49:20.185Z,-4.47
2023-03-21T04:51:47.161Z,-4.30
2023-03-21T04:56:41.064Z,-4.33
2023-03-21T04:59:11.293Z,-4.52
2023-03-21T05:01:38.156Z,-4.65
2023-03-21T05:04:05.194Z,-4.54
2023-03-21T05:06:33.247Z,-4.19
2023-03-21T05:09:01.687Z,-4.07
2023-03-21T05:11:30.930Z,-4.00
2023-03-21T05:14:01.213Z,-4.10
2023-03-21T05:16:30.827Z,-4.20
2023-03-21T05:19:00.372Z,-4.45
2023-03-21T05:21:29.978Z,-4.61
2023-03-21T05:23:58.411Z,-4.46
2023-03-21T05:26:25.788Z,-4.37
2023-03-21T05:28:52.564Z,-4.48
2023-03-21T05:31:20.384Z,-4.53
2023-03-21T05:33:49.129Z,-4.55
2023-03-21T05:36:16.178Z,-4.41
2023-03-21T05:38:45.727Z,-4.30
2023-03-21T05:41:18.763Z,-4.26
2023-03-21T05:43:45.845Z,-4.20
2023-03-21T05:46:13.076Z,-4.00
2023-03-21T05:48:40.084Z,-3.78
2023-03-21T05:51:06.969Z,-3.53
2023-03-21T05:53:33.683Z,-3.34
2023-03-21T05:56:00.492Z,-3.20
2023-03-21T05:58:29.062Z,-3.10
2023-03-21T06:00:55.810Z,-2.97
2023-03-21T06:03:22.641Z,-2.85
2023-03-21T06:05:49.322Z,-2.65
2023-03-21T06:08:16.116Z,-2.80
2023-03-21T06:10:42.770Z,-2.96
2023-03-21T06:13:09.410Z,-2.97
2023-03-21T06:15:36.275Z,-2.99
2023-03-21T06:18:04.407Z,-2.99
2023-03-21T06:20:31.014Z,-2.90
2023-03-21T06:22:57.723Z,-2.86
2023-03-21T06:25:24.396Z,-2.77
2023-03-21T06:27:51.074Z,-2.69
2023-03-21T06:30:18.353Z,-2.82
2023-03-21T06:32:45.006Z,-3.09
2023-03-21T06:35:13.836Z,-2.94
2023-03-21T06:37:40.499Z,-2.67
2023-03-21T06:40:10.539Z,-2.60
2023-03-21T06:42:37.444Z,-2.59
2023-03-21T06:45:04.517Z,-2.46
2023-03-21T06:47:31.140Z,-2.39
2023-03-21T06:49:57.737Z,-2.18
2023-03-21T06:52:24.516Z,-2.23
2023-03-21T06:54:51.241Z,-2.15
2023-03-21T06:57:21.239Z,-1.99
2023-03-21T06:59:47.875Z,-1.91
2023-03-21T07:02:14.842Z,-2.05
2023-03-21T07:04:41.558Z,-1.88
2023-03-21T07:07:08.211Z,-1.91
2023-03-21T07:09:34.804Z,-1.97
2023-03-21T07:12:01.525Z,-2.00
2023-03-21T07:14:28.304Z,-1.93
2023-03-21T07:16:54.890Z,-1.87
2023-03-21T07:19:22.817Z,-1.67
2023-03-21T07:21:50.804Z,-1.75
2023-03-21T07:24:18.726Z,-1.87
2023-03-21T07:26:45.543Z,-1.90
2023-03-21T07:29:12.187Z,-1.84
2023-03-21T07:31:39.996Z,-1.61
2023-03-21T07:34:06.753Z,-1.48
2023-03-21T07:36:33.376Z,-1.49
2023-03-21T07:39:00.086Z,-1.48
2023-03-21T07:41:26.739Z,-1.41
2023-03-21T07:43:53.383Z,-1.20
2023-03-21T07:46:20.323Z,-1.14
2023-03-21T07:48:47.664Z,-1.01
2023-03-21T07:51:14.805Z,-0.91
2023-03-21T07:53:42.076Z,-0.65
2023-03-21T07:56:09.076Z,-0.47
2023-03-21T07:58:36.054Z,-0.23
2023-03-21T08:01:05.210Z,0.01
2023-03-21T08:03:33.375Z,0.22
2023-03-21T08:06:03.300Z,0.15
2023-03-21T08:08:30.363Z,0.25
2023-03-21T08:10:57.438Z,0.25
2023-03-21T08:13:26.060Z,0.46
2023-03-21T08:15:52.704Z,0.41
2023-03-21T08:18:19.488Z,0.48
2023-03-21T08:20:46.710Z,0.72
2023-03-21T08:23:13.926Z,0.88
2023-03-21T08:25:40.738Z,0.83
2023-03-21T08:28:07.469Z,0.77
2023-03-21T08:30:34.190Z,1.00
2023-03-21T08:33:02.079Z,1.13
2023-03-21T08:35:30.930Z,1.17
2023-03-21T08:37:58.037Z,1.38
2023-03-21T08:40:24.722Z,1.63
2023-03-21T08:42:51.377Z,1.64
2023-03-21T08:45:18.645Z,1.65
2023-03-21T08:47:47.816Z,1.81
2023-03-21T08:50:20.979Z,2.06
2023-03-21T08:52:48.256Z,1.98
2023-03-21T08:55:17.031Z,2.04
2023-03-21T08:57:44.451Z,2.16
2023-03-21T09:00:16.043Z,2.21
2023-03-21T09:02:48.390Z,2.16
2023-03-21T09:05:16.981Z,2.27
2023-03-21T09:07:45.377Z,2.43
2023-03-21T09:10:23.112Z,2.39
2023-03-21T09:12:53.376Z,2.49
2023-03-21T09:15:22.126Z,2.61
2023-03-21T09:17:53.010Z,2.58
2023-03-21T09:20:25.959Z,2.58
2023-03-21T09:22:53.404Z,2.82
2023-03-21T09:25:21.163Z,2.75
2023-03-21T09:27:48.406Z,2.61
2023-03-21T09:30:21.862Z,2.83
2023-03-21T09:32:50.546Z,3.00
2023-03-21T09:35:18.875Z,3.01
2023-03-21T09:37:48.317Z,2.98
2023-03-21T09:40:27.379Z,3.25
2023-03-21T09:43:07.526Z,3.09
2023-03-21T09:45:43.976Z,3.04
2023-03-21T09:48:26.015Z,3.22
2023-03-21T09:50:53.530Z,3.22
2023-03-21T09:53:28.256Z,3.16
2023-03-21T09:55:55.015Z,3.26
2023-03-21T09:58:26.481Z,3.54
2023-03-21T10:01:05.340Z,3.44
2023-03-21T10:03:36.420Z,3.46
2023-03-21T10:06:10.040Z,3.75
2023-03-21T10:08:41.386Z,3.70
2023-03-21T10:11:08.262Z,3.70
2023-03-21T10:13:45.594Z,3.91
2023-03-21T10:16:32.467Z,3.93
2023-03-21T10:19:09.837Z,3.80
2023-03-21T10:24:28.427Z,4.08
2023-03-21T10:26:57.999Z,3.98
2023-03-21T10:29:29.793Z,4.14
2023-03-21T10:31:56.712Z,4.22
2023-03-21T10:34:23.676Z,4.08
2023-03-21T10:36:50.412Z,4.25
2023-03-21T10:39:38.518Z,4.32
2023-03-21T10:42:07.029Z,4.22
2023-03-21T10:44:37.108Z,4.43
2023-03-21T10:47:11.276Z,4.45
2023-03-21T10:50:05.929Z,4.31
2023-03-21T10:52:31.272Z,4.49
2023-03-21T10:55:18.741Z,4.43
2023-03-21T10:57:47.342Z,4.31
2023-03-21T11:00:21.841Z,4.60
2023-03-21T11:02:51.595Z,4.47
2023-03-21T11:05:25.512Z,4.40
2023-03-21T11:08:04.927Z,4.34
2023-03-21T11:10:57.499Z,4.35
2023-03-21T11:13:34.374Z,4.64
2023-03-21T11:16:12.043Z,4.67
2023-03-21T11:18:46.156Z,4.69
2023-03-21T11:21:14.790Z,4.77
2023-03-21T11:23:47.007Z,4.95
2023-03-21T11:26:26.872Z,5.20
2023-03-21T11:28:55.369Z,5.10
2023-03-21T11:31:25.044Z,5.10
2023-03-21T11:33:55.400Z,5.25
2023-03-21T11:36:21.980Z,5.03
2023-03-21T11:38:52.861Z,5.19
2023-03-21T11:41:33.758Z,5.13
2023-03-21T11:44:02.402Z,5.00
2023-03-21T11:46:32.243Z,5.14
2023-03-21T11:49:00.672Z,5.41
2023-03-21T11:51:39.408Z,5.27
2023-03-21T11:54:54.966Z,5.35
2023-03-21T11:57:32.254Z,5.58
2023-03-21T12:00:26.079Z,5.52
2023-03-21T12:03:47.127Z,5.42
2023-03-21T12:06:37.249Z,5.72
2023-03-21T12:09:20.948Z,5.53
2023-03-21T12:12:00.037Z,5.79
2023-03-21T12:14:26.625Z,5.73
2023-03-21T12:17:14.356Z,5.75
2023-03-21T12:19:57.890Z,5.99
2023-03-21T12:22:58.012Z,5.70
2023-03-21T12:25:56.587Z,6.00
2023-03-21T12:28:36.756Z,5.79
2023-03-21T12:31:22.419Z,5.88
2023-03-21T12:34:06.808Z,5.82
2023-03-21T12:36:59.464Z,5.79
2023-03-21T12:39:35.538Z,6.03
2023-03-21T12:42:19.768Z,5.88
2023-03-21T12:45:06.258Z,5.86
2023-03-21T12:47:44.306Z,6.11
2023-03-21T12:50:23.030Z,5.94
2023-03-21T12:52:57.274Z,5.86
2023-03-21T12:55:26.210Z,6.12
2023-03-21T12:58:04.486Z,6.20
2023-03-21T13:00:44.742Z,6.00
2023-03-21T13:03:39.065Z,6.02
2023-03-21T13:06:09.440Z,6.05
2023-03-21T13:08:42.528Z,6.10
2023-03-21T13:11:17.066Z,6.32
2023-03-21T13:14:06.119Z,6.14
2023-03-21T13:16:38.897Z,6.05
2023-03-21T13:19:05.505Z,6.33
2023-03-21T13:21:46.341Z,6.24
2023-03-21T13:24:22.183Z,6.06
2023-03-21T13:26:52.774Z,5.97
2023-03-21T13:29:34.308Z,6.17
2023-03-21T13:32:18.153Z,6.11
2023-03-21T13:34:44.891Z,5.89
2023-03-21T13:37:18.345Z,6.01
2023-03-21T13:39:49.943Z,6.15
2023-03-21T13:42:23.616Z,5.95
2023-03-21T13:44:57.865Z,5.92
2023-03-21T13:47:58.068Z,6.05
2023-03-21T13:50:27.719Z,5.79
2023-03-21T13:53:04.837Z,6.04
2023-03-21T13:55:41.467Z,5.86
2023-03-21T13:58:44.142Z,5.87
2023-03-21T14:01:37.910Z,5.81
2023-03-21T14:04:09.601Z,5.64
2023-03-21T14:06:44.853Z,5.92
2023-03-21T14:09:25.125Z,5.66
2023-03-21T14:11:58.761Z,5.60
2023-03-21T14:14:36.634Z,5.71
2023-03-21T14:17:12.698Z,5.52
2023-03-21T14:19:39.495Z,5.63
2023-03-21T14:22:13.262Z,5.65
2023-03-21T14:24:41.385Z,5.50
2023-03-21T14:27:08.847Z,5.72
2023-03-21T14:29:36.895Z,5.69
2023-03-21T14:32:05.728Z,5.42
2023-03-21T14:34:35.827Z,5.65
2023-03-21T14:37:02.554Z,5.61
2023-03-21T14:39:32.195Z,5.59
2023-03-21T14:42:08.471Z,5.79
2023-03-21T14:44:52.842Z,5.57
2023-03-21T14:47:24.042Z,5.43
2023-03-21T14:49:51.994Z,5.66
2023-03-21T14:52:30.067Z,5.58
2023-03-21T14:54:58.953Z,5.58
2023-03-21T14:57:32.228Z,5.73
2023-03-21T15:00:17.567Z,5.39
2023-03-21T15:02:46.320Z,5.50
2023-03-21T15:05:31.839Z,5.54
2023-03-21T15:08:09.069Z,5.29
2023-03-21T15:10:35.804Z,5.49
2023-03-21T15:13:25.680Z,5.34
2023-03-21T15:15:55.117Z,5.24
2023-03-21T15:18:29.561Z,5.45
2023-03-21T15:21:01.088Z,5.12
2023-03-21T15:23:33.146Z,5.26
2023-03-21T15:26:05.690Z,5.25
2023-03-21T15:28:36.345Z,5.03
2023-03-21T15:31:04.886Z,5.04
2023-03-21T15:33:31.520Z,5.26
2023-03-21T15:36:00.054Z,5.02
2023-03-21T15:38:41.613Z,5.15
2023-03-21T15:41:21.232Z,5.15
2023-03-21T15:43:48.926Z,4.86
2023-03-21T15:46:19.568Z,4.93
2023-03-21T15:48:46.895Z,5.20
2023-03-21T15:51:24.452Z,4.95
2023-03-21T15:53:54.171Z,5.09
2023-03-21T15:56:22.326Z,5.08
2023-03-21T15:58:52.583Z,4.98
2023-03-21T16:01:22.202Z,5.05
2023-03-21T16:03:56.749Z,4.90
2023-03-21T16:06:33.560Z,4.60
2023-03-21T16:09:09.420Z,4.78
2023-03-21T16:11:47.947Z,4.88
2023-03-21T16:14:15.863Z,4.74
2023-03-21T16:16:43.077Z,4.67
2023-03-21T16:19:09.702Z,4.96
2023-03-21T16:21:39.358Z,4.81
2023-03-21T16:24:06.958Z,4.71
2023-03-21T16:26:38.347Z,4.80
2023-03-21T16:29:07.174Z,4.82
2023-03-21T16:31:35.454Z,4.65
2023-03-21T16:34:02.079Z,4.58
2023-03-21T16:36:32.805Z,4.74
2023-03-21T16:39:00.997Z,4.46
2023-03-21T16:41:29.475Z,4.29
2023-03-21T16:43:57.046Z,4.54
2023-03-21T16:46:26.754Z,4.30
2023-03-21T16:48:56.528Z,4.31
2023-03-21T16:51:31.549Z,4.41
2023-03-21T16:53:58.266Z,4.20
2023-03-21T16:56:27.610Z,4.32
2023-03-21T16:58:55.354Z,4.31
2023-03-21T17:01:26.117Z,4.08
2023-03-21T17:03:53.992Z,4.26
2023-03-21T17:06:24.445Z,3.99
2023-03-21T17:08:52.327Z,3.94
2023-03-21T17:11:22.055Z,4.23
2023-03-21T17:13:50.376Z,3.97
2023-03-21T17:16:20.856Z,3.84
2023-03-21T17:18:48.798Z,3.94
2023-03-21T17:21:24.730Z,3.55
2023-03-21T17:23:52.819Z,3.59
2023-03-21T17:26:26.296Z,3.68
2023-03-21T17:28:55.395Z,3.46
2023-03-21T17:31:23.890Z,3.64
2023-03-21T17:33:51.216Z,3.63
2023-03-21T17:36:30.101Z,3.42
2023-03-21T17:38:57.867Z,3.55
2023-03-21T17:41:25.242Z,3.60
2023-03-21T17:43:52.330Z,3.40
2023-03-21T17:46:25.133Z,3.59
2023-03-21T17:48:53.331Z,3.62
2023-03-21T17:51:20.393Z,3.42
2023-03-21T17:53:50.673Z,3.56
2023-03-21T17:56:37.425Z,3.41
2023-03-21T17:59:06.213Z,3.28
2023-03-21T18:01:33.437Z,3.52
2023-03-21T18:04:02.947Z,3.29
2023-03-21T18:06:29.632Z,3.27
2023-03-21T18:08:56.311Z,3.46
2023-03-21T18:11:24.108Z,3.29
2023-03-21T18:14:01.253Z,3.13
2023-03-21T18:16:39.196Z,3.06
2023-03-21T18:19:05.840Z,3.34
2023-03-21T18:21:33.089Z,3.23
2023-03-21T18:23:59.758Z,3.16
2023-03-21T18:26:26.392Z,3.34
2023-03-21T18:29:36.664Z,3.03
2023-03-21T18:31:43.844Z,3.00
2023-03-21T18:34:15.586Z,3.21
2023-03-21T18:36:42.770Z,2.96
2023-03-21T18:39:09.530Z,2.99
2023-03-21T18:41:36.262Z,3.11
2023-03-21T18:44:13.017Z,2.79
2023-03-21T18:46:49.556Z,2.83
2023-03-21T18:52:06.783Z,2.77
2023-03-21T18:54:34.645Z,2.65
2023-03-21T18:59:49.490Z,2.77
2023-03-21T19:02:16.764Z,2.68
2023-03-21T19:04:43.724Z,2.57
2023-03-21T19:07:10.767Z,2.80
2023-03-21T19:12:27.089Z,2.69
2023-03-21T19:14:54.424Z,2.89
2023-03-21T19:18:23.151Z,2.61
2023-03-21T19:20:11.891Z,2.60
2023-03-21T19:22:39.746Z,2.76
2023-03-21T19:25:07.913Z,2.59
2023-03-21T19:27:37.076Z,2.49
2023-03-21T19:30:14.358Z,2.49
2023-03-21T19:32:43.098Z,2.76
2023-03-21T19:35:10.728Z,2.67
2023-03-21T19:37:37.685Z,2.73
2023-03-21T19:40:06.067Z,2.79
2023-03-21T19:42:33.073Z,2.62
2023-03-21T19:44:59.698Z,2.78
2023-03-21T19:47:27.118Z,2.63
2023-03-21T19:50:42.055Z,2.48
2023-03-21T19:52:43.578Z,2.70
2023-03-21T19:55:12.080Z,2.53
2023-03-21T19:57:38.681Z,2.60
2023-03-21T20:00:10.427Z,2.78
2023-03-21T20:02:38.088Z,2.61
2023-03-21T20:05:06.753Z,2.68
2023-03-21T20:07:33.803Z,2.78
2023-03-21T20:10:00.839Z,2.60
2023-03-21T20:12:29.862Z,2.64
2023-03-21T20:15:10.318Z,2.68
2023-03-21T20:17:45.090Z,2.48
2023-03-21T20:20:17.839Z,2.66
2023-03-21T20:25:43.170Z,2.48
2023-03-21T20:28:16.489Z,2.70
2023-03-21T20:30:53.062Z,2.51
2023-03-21T20:33:20.267Z,2.51
2023-03-21T20:36:32.247Z,2.68
2023-03-21T20:38:35.600Z,2.49
2023-03-21T20:41:04.409Z,2.54
2023-03-21T20:46:18.616Z,2.46
2023-03-21T20:48:48.865Z,2.67
2023-03-21T20:52:27.544Z,2.69
2023-03-21T20:54:05.494Z,2.42
2023-03-21T20:56:32.790Z,2.58
2023-03-21T20:59:15.319Z,2.58
2023-03-21T21:01:47.288Z,2.42
2023-03-21T21:04:19.771Z,2.61
2023-03-21T21:06:47.865Z,2.42
2023-03-21T21:09:14.682Z,2.30
2023-03-21T21:14:29.157Z,2.33
2023-03-21T21:16:57.325Z,2.34
2023-03-21T21:19:24.364Z,2.49
2023-03-21T21:21:51.602Z,2.30
2023-03-21T21:24:18.243Z,2.21
2023-03-21T21:26:47.654Z,2.42
2023-03-21T21:29:17.888Z,2.26
2023-03-21T21:31:51.848Z,2.28
2023-03-21T21:34:21.042Z,2.42
2023-03-21T21:36:48.123Z,2.27
2023-03-21T21:39:17.785Z,2.25
2023-03-21T21:41:44.442Z,2.38
2023-03-21T21:44:11.433Z,2.19
2023-03-21T21:46:38.960Z,2.22
2023-03-21T21:49:06.717Z,2.34
2023-03-21T21:51:34.629Z,2.12
2023-03-21T21:54:04.856Z,2.14
2023-03-21T21:56:37.812Z,2.28
2023-03-21T21:59:05.479Z,2.13
2023-03-21T22:01:34.871Z,2.17
2023-03-21T22:04:07.082Z,2.33
2023-03-21T22:06:34.434Z,2.11
2023-03-21T22:09:02.321Z,2.18
2023-03-21T22:11:30.370Z,2.26
2023-03-21T22:13:57.105Z,2.03
2023-03-21T22:16:23.877Z,2.10
2023-03-21T22:18:50.557Z,2.28
2023-03-21T22:21:17.260Z,2.05
2023-03-21T22:23:45.265Z,2.05
2023-03-21T22:26:11.945Z,2.23
2023-03-21T22:28:42.327Z,2.01
2023-03-21T22:31:12.531Z,1.95
2023-03-21T22:33:39.255Z,2.14
2023-03-21T22:36:06.280Z,1.94
2023-03-21T22:38:34.542Z,1.91
2023-03-21T22:41:03.962Z,2.11
2023-03-21T22:43:34.177Z,1.93
2023-03-21T22:46:05.641Z,1.85
2023-03-21T22:48:33.251Z,2.04
2023-03-21T22:51:01.067Z,1.86
2023-03-21T22:53:28.799Z,1.69
2023-03-21T22:55:55.713Z,1.91
2023-03-21T22:58:22.648Z,1.72
2023-03-21T23:00:49.347Z,1.56
2023-03-21T23:03:17.007Z,1.76
2023-03-21T23:05:46.520Z,1.74
2023-03-21T23:08:13.648Z,1.64
2023-03-21T23:10:43.526Z,1.81
2023-03-21T23:13:10.553Z,1.83
2023-03-21T23:15:38.673Z,1.66
2023-03-21T23:18:05.814Z,1.73
2023-03-21T23:20:32.553Z,1.79
2023-03-21T23:22:59.188Z,1.63
2023-03-21T23:25:25.868Z,1.72
2023-03-21T23:27:52.483Z,1.73
2023-03-21T23:30:20.664Z,1.57
2023-03-21T23:32:48.950Z,1.56
2023-03-21T23:35:16.301Z,1.72
2023-03-21T23:37:53.534Z,1.51
2023-03-21T23:40:21.272Z,1.43
2023-03-21T23:42:47.973Z,1.64
2023-03-21T23:45:14.863Z,1.49
2023-03-21T23:47:41.995Z,1.43
2023-03-21T23:50:10.145Z,1.62
2023-03-21T23:52:37.469Z,1.44
2023-03-21T23:55:05.757Z,1.39
2023-03-21T23:57:32.663Z,1.56
2023-03-21T23:59:59.331Z,1.41
